sensor_id;sensor_type;location;lat;lon;timestamp;P1;durP1;ratioP1;P2;durP2;ratioP2
24801;SDS011;12898;50.520;12.152;2022-12-26T00:00:58;6.93;;;3.65;;
24801;SDS011;12898;50.520;12.152;2022-12-26T00:03:26;6.55;;;3.50;;
24801;SDS011;12898;50.520;12.152;2022-12-26T00:05:54;6.45;;;3.45;;
24801;SDS011;12898;50.520;12.152;2022-12-26T00:08:20;8.43;;;3.33;;
24801;SDS011;12898;50.520;12.152;2022-12-26T00:10:46;8.40;;;4.00;;
24801;SDS011;12898;50.520;12.152;2022-12-26T00:13:11;6.35;;;3.25;;
24801;SDS011;12898;50.520;12.152;2022-12-26T00:15:40;7.50;;;3.83;;
24801;SDS011;12898;50.520;12.152;2022-12-26T00:18:07;7.32;;;3.72;;
24801;SDS011;12898;50.520;12.152;2022-12-26T00:20:33;6.40;;;3.50;;
24801;SDS011;12898;50.520;12.152;2022-12-26T00:22:59;6.65;;;3.35;;
24801;SDS011;12898;50.520;12.152;2022-12-26T00:25:24;6.28;;;3.20;;
24801;SDS011;12898;50.520;12.152;2022-12-26T00:27:50;6.35;;;3.15;;
24801;SDS011;12898;50.520;12.152;2022-12-26T00:30:16;6.90;;;3.50;;
24801;SDS011;12898;50.520;12.152;2022-12-26T00:32:42;6.15;;;3.42;;
24801;SDS011;12898;50.520;12.152;2022-12-26T00:35:08;8.38;;;3.75;;
24801;SDS011;12898;50.520;12.152;2022-12-26T00:37:33;7.15;;;3.70;;
24801;SDS011;12898;50.520;12.152;2022-12-26T00:39:59;6.78;;;3.40;;
24801;SDS011;12898;50.520;12.152;2022-12-26T00:42:25;6.63;;;3.00;;
24801;SDS011;12898;50.520;12.152;2022-12-26T00:44:50;5.40;;;2.95;;
24801;SDS011;12898;50.520;12.152;2022-12-26T00:47:16;5.13;;;3.08;;
24801;SDS011;12898;50.520;12.152;2022-12-26T00:49:42;7.40;;;3.05;;
24801;SDS011;12898;50.520;12.152;2022-12-26T00:52:07;8.23;;;3.38;;
24801;SDS011;12898;50.520;12.152;2022-12-26T00:54:33;6.00;;;3.05;;
24801;SDS011;12898;50.520;12.152;2022-12-26T00:56:59;4.53;;;3.05;;
24801;SDS011;12898;50.520;12.152;2022-12-26T00:59:25;5.38;;;3.33;;
24801;SDS011;12898;50.520;12.152;2022-12-26T01:01:51;9.15;;;3.78;;
24801;SDS011;12898;50.520;12.152;2022-12-26T01:04:17;7.20;;;3.65;;
24801;SDS011;12898;50.520;12.152;2022-12-26T01:06:43;8.50;;;3.10;;
24801;SDS011;12898;50.520;12.152;2022-12-26T01:09:08;9.13;;;3.22;;
24801;SDS011;12898;50.520;12.152;2022-12-26T01:11:36;5.53;;;3.20;;
24801;SDS011;12898;50.520;12.152;2022-12-26T01:14:06;7.30;;;3.50;;
24801;SDS011;12898;50.520;12.152;2022-12-26T01:16:38;5.78;;;3.20;;
24801;SDS011;12898;50.520;12.152;2022-12-26T01:19:05;6.53;;;3.67;;
24801;SDS011;12898;50.520;12.152;2022-12-26T01:21:32;9.75;;;4.28;;
24801;SDS011;12898;50.520;12.152;2022-12-26T01:23:58;6.07;;;3.53;;
24801;SDS011;12898;50.520;12.152;2022-12-26T01:26:24;5.93;;;3.30;;
24801;SDS011;12898;50.520;12.152;2022-12-26T01:28:50;7.05;;;3.00;;
24801;SDS011;12898;50.520;12.152;2022-12-26T01:31:17;7.10;;;3.50;;
24801;SDS011;12898;50.520;12.152;2022-12-26T01:33:44;7.43;;;3.55;;
24801;SDS011;12898;50.520;12.152;2022-12-26T01:36:10;5.45;;;3.20;;
24801;SDS011;12898;50.520;12.152;2022-12-26T01:38:36;7.15;;;3.30;;
24801;SDS011;12898;50.520;12.152;2022-12-26T01:41:02;7.57;;;3.70;;
24801;SDS011;12898;50.520;12.152;2022-12-26T01:43:45;8.75;;;3.50;;
24801;SDS011;12898;50.520;12.152;2022-12-26T01:46:34;5.80;;;3.00;;
24801;SDS011;12898;50.520;12.152;2022-12-26T01:49:47;6.43;;;2.88;;
24801;SDS011;12898;50.520;12.152;2022-12-26T01:52:01;7.30;;;3.58;;
24801;SDS011;12898;50.520;12.152;2022-12-26T01:54:31;7.53;;;3.08;;
24801;SDS011;12898;50.520;12.152;2022-12-26T01:57:02;6.70;;;3.08;;
24801;SDS011;12898;50.520;12.152;2022-12-26T01:59:34;6.70;;;3.38;;
24801;SDS011;12898;50.520;12.152;2022-12-26T02:02:02;8.45;;;3.33;;
24801;SDS011;12898;50.520;12.152;2022-12-26T02:04:30;8.27;;;3.15;;
24801;SDS011;12898;50.520;12.152;2022-12-26T02:07:21;5.88;;;3.08;;
24801;SDS011;12898;50.520;12.152;2022-12-26T02:09:47;5.80;;;2.90;;
24801;SDS011;12898;50.520;12.152;2022-12-26T02:12:23;7.32;;;3.35;;
24801;SDS011;12898;50.520;12.152;2022-12-26T02:14:58;7.50;;;3.15;;
24801;SDS011;12898;50.520;12.152;2022-12-26T02:17:25;5.90;;;2.80;;
24801;SDS011;12898;50.520;12.152;2022-12-26T02:20:10;8.30;;;3.13;;
24801;SDS011;12898;50.520;12.152;2022-12-26T02:25:47;7.30;;;3.10;;
24801;SDS011;12898;50.520;12.152;2022-12-26T02:34:21;9.13;;;3.92;;
24801;SDS011;12898;50.520;12.152;2022-12-26T02:37:04;9.13;;;3.33;;
24801;SDS011;12898;50.520;12.152;2022-12-26T02:45:39;6.88;;;3.63;;
24801;SDS011;12898;50.520;12.152;2022-12-26T02:54:42;4.95;;;2.67;;
24801;SDS011;12898;50.520;12.152;2022-12-26T02:57:50;7.13;;;3.10;;
24801;SDS011;12898;50.520;12.152;2022-12-26T03:00:58;6.80;;;3.00;;
24801;SDS011;12898;50.520;12.152;2022-12-26T03:04:03;6.10;;;2.90;;
24801;SDS011;12898;50.520;12.152;2022-12-26T03:06:53;5.55;;;2.70;;
24801;SDS011;12898;50.520;12.152;2022-12-26T03:09:41;5.85;;;3.00;;
24801;SDS011;12898;50.520;12.152;2022-12-26T03:12:39;6.00;;;2.80;;
24801;SDS011;12898;50.520;12.152;2022-12-26T03:15:31;5.40;;;2.80;;
24801;SDS011;12898;50.520;12.152;2022-12-26T03:18:18;7.75;;;3.15;;
24801;SDS011;12898;50.520;12.152;2022-12-26T03:20:47;5.97;;;3.28;;
24801;SDS011;12898;50.520;12.152;2022-12-26T03:23:14;7.78;;;3.10;;
24801;SDS011;12898;50.520;12.152;2022-12-26T03:25:54;6.88;;;2.88;;
24801;SDS011;12898;50.520;12.152;2022-12-26T03:28:47;7.28;;;3.17;;
24801;SDS011;12898;50.520;12.152;2022-12-26T03:31:13;6.00;;;3.00;;
24801;SDS011;12898;50.520;12.152;2022-12-26T03:33:41;5.85;;;2.97;;
24801;SDS011;12898;50.520;12.152;2022-12-26T03:39:34;8.05;;;3.30;;
24801;SDS011;12898;50.520;12.152;2022-12-26T03:48:40;7.55;;;3.33;;
24801;SDS011;12898;50.520;12.152;2022-12-26T03:54:27;6.50;;;3.20;;
24801;SDS011;12898;50.520;12.152;2022-12-26T03:57:44;7.00;;;3.40;;
24801;SDS011;12898;50.520;12.152;2022-12-26T04:00:35;5.00;;;2.97;;
24801;SDS011;12898;50.520;12.152;2022-12-26T04:03:22;5.97;;;3.10;;
24801;SDS011;12898;50.520;12.152;2022-12-26T04:06:12;6.25;;;3.83;;
24801;SDS011;12898;50.520;12.152;2022-12-26T04:09:25;10.75;;;3.22;;
24801;SDS011;12898;50.520;12.152;2022-12-26T04:12:17;6.97;;;3.05;;
24801;SDS011;12898;50.520;12.152;2022-12-26T04:15:50;6.38;;;3.13;;
24801;SDS011;12898;50.520;12.152;2022-12-26T04:18:35;5.65;;;3.00;;
24801;SDS011;12898;50.520;12.152;2022-12-26T04:24:30;6.25;;;3.13;;
24801;SDS011;12898;50.520;12.152;2022-12-26T04:27:42;6.45;;;2.95;;
24801;SDS011;12898;50.520;12.152;2022-12-26T04:30:26;6.30;;;3.03;;
24801;SDS011;12898;50.520;12.152;2022-12-26T04:33:18;5.78;;;2.85;;
24801;SDS011;12898;50.520;12.152;2022-12-26T04:36:14;8.57;;;3.20;;
24801;SDS011;12898;50.520;12.152;2022-12-26T04:39:07;7.03;;;3.10;;
24801;SDS011;12898;50.520;12.152;2022-12-26T04:41:54;10.68;;;3.60;;
24801;SDS011;12898;50.520;12.152;2022-12-26T04:44:40;5.60;;;2.72;;
24801;SDS011;12898;50.520;12.152;2022-12-26T04:47:06;5.63;;;3.33;;
24801;SDS011;12898;50.520;12.152;2022-12-26T04:49:40;6.13;;;2.97;;
24801;SDS011;12898;50.520;12.152;2022-12-26T04:52:26;7.10;;;3.30;;
24801;SDS011;12898;50.520;12.152;2022-12-26T04:55:15;7.07;;;2.95;;
24801;SDS011;12898;50.520;12.152;2022-12-26T04:57:41;5.95;;;2.75;;
24801;SDS011;12898;50.520;12.152;2022-12-26T05:00:07;7.15;;;3.00;;
24801;SDS011;12898;50.520;12.152;2022-12-26T05:02:34;7.93;;;3.17;;
24801;SDS011;12898;50.520;12.152;2022-12-26T05:05:19;4.63;;;2.70;;
24801;SDS011;12898;50.520;12.152;2022-12-26T05:08:03;5.05;;;2.83;;
24801;SDS011;12898;50.520;12.152;2022-12-26T05:10:47;6.45;;;3.30;;
24801;SDS011;12898;50.520;12.152;2022-12-26T05:13:13;7.72;;;3.08;;
24801;SDS011;12898;50.520;12.152;2022-12-26T05:15:39;6.55;;;2.58;;
24801;SDS011;12898;50.520;12.152;2022-12-26T05:18:23;5.88;;;2.70;;
24801;SDS011;12898;50.520;12.152;2022-12-26T05:21:12;5.82;;;3.25;;
24801;SDS011;12898;50.520;12.152;2022-12-26T05:23:59;5.75;;;2.95;;
24801;SDS011;12898;50.520;12.152;2022-12-26T05:26:43;6.22;;;2.78;;
24801;SDS011;12898;50.520;12.152;2022-12-26T05:29:27;5.85;;;2.95;;
24801;SDS011;12898;50.520;12.152;2022-12-26T05:31:53;6.57;;;3.30;;
24801;SDS011;12898;50.520;12.152;2022-12-26T05:34:19;6.43;;;3.33;;
24801;SDS011;12898;50.520;12.152;2022-12-26T05:36:49;7.05;;;3.03;;
24801;SDS011;12898;50.520;12.152;2022-12-26T05:39:17;6.43;;;3.22;;
24801;SDS011;12898;50.520;12.152;2022-12-26T05:41:43;8.07;;;3.45;;
24801;SDS011;12898;50.520;12.152;2022-12-26T05:44:09;5.55;;;2.88;;
24801;SDS011;12898;50.520;12.152;2022-12-26T05:46:35;8.15;;;2.78;;
24801;SDS011;12898;50.520;12.152;2022-12-26T05:49:02;6.72;;;2.90;;
24801;SDS011;12898;50.520;12.152;2022-12-26T05:51:28;5.65;;;2.92;;
24801;SDS011;12898;50.520;12.152;2022-12-26T05:53:54;5.93;;;3.05;;
24801;SDS011;12898;50.520;12.152;2022-12-26T05:56:20;8.80;;;3.05;;
24801;SDS011;12898;50.520;12.152;2022-12-26T05:58:46;5.90;;;3.10;;
24801;SDS011;12898;50.520;12.152;2022-12-26T06:01:17;6.82;;;2.95;;
24801;SDS011;12898;50.520;12.152;2022-12-26T06:03:45;10.30;;;3.40;;
24801;SDS011;12898;50.520;12.152;2022-12-26T06:06:14;7.65;;;2.83;;
24801;SDS011;12898;50.520;12.152;2022-12-26T06:08:41;5.75;;;3.00;;
24801;SDS011;12898;50.520;12.152;2022-12-26T06:11:08;7.93;;;3.00;;
24801;SDS011;12898;50.520;12.152;2022-12-26T06:13:36;6.75;;;3.30;;
24801;SDS011;12898;50.520;12.152;2022-12-26T06:16:06;7.20;;;3.20;;
24801;SDS011;12898;50.520;12.152;2022-12-26T06:18:35;6.30;;;3.00;;
24801;SDS011;12898;50.520;12.152;2022-12-26T06:21:05;5.60;;;2.85;;
24801;SDS011;12898;50.520;12.152;2022-12-26T06:23:37;5.63;;;3.17;;
24801;SDS011;12898;50.520;12.152;2022-12-26T06:26:04;6.72;;;3.03;;
24801;SDS011;12898;50.520;12.152;2022-12-26T06:28:32;8.38;;;3.40;;
24801;SDS011;12898;50.520;12.152;2022-12-26T06:31:02;6.60;;;3.10;;
24801;SDS011;12898;50.520;12.152;2022-12-26T06:33:33;8.35;;;3.75;;
24801;SDS011;12898;50.520;12.152;2022-12-26T06:36:03;6.03;;;3.50;;
24801;SDS011;12898;50.520;12.152;2022-12-26T06:38:34;5.38;;;2.90;;
24801;SDS011;12898;50.520;12.152;2022-12-26T06:41:00;7.30;;;2.97;;
24801;SDS011;12898;50.520;12.152;2022-12-26T06:43:29;7.05;;;3.00;;
24801;SDS011;12898;50.520;12.152;2022-12-26T06:45:58;7.22;;;2.88;;
24801;SDS011;12898;50.520;12.152;2022-12-26T06:48:26;5.55;;;3.00;;
24801;SDS011;12898;50.520;12.152;2022-12-26T06:50:52;8.40;;;3.00;;
24801;SDS011;12898;50.520;12.152;2022-12-26T06:53:18;6.05;;;2.92;;
24801;SDS011;12898;50.520;12.152;2022-12-26T06:55:48;6.22;;;2.92;;
24801;SDS011;12898;50.520;12.152;2022-12-26T06:58:15;8.30;;;3.00;;
24801;SDS011;12898;50.520;12.152;2022-12-26T07:00:41;8.05;;;2.53;;
24801;SDS011;12898;50.520;12.152;2022-12-26T07:03:07;6.88;;;2.90;;
24801;SDS011;12898;50.520;12.152;2022-12-26T07:05:34;7.28;;;3.03;;
24801;SDS011;12898;50.520;12.152;2022-12-26T07:08:01;7.70;;;2.80;;
24801;SDS011;12898;50.520;12.152;2022-12-26T07:10:27;5.90;;;2.83;;
24801;SDS011;12898;50.520;12.152;2022-12-26T07:12:52;6.78;;;3.20;;
24801;SDS011;12898;50.520;12.152;2022-12-26T07:15:18;6.93;;;2.72;;
24801;SDS011;12898;50.520;12.152;2022-12-26T07:17:44;9.30;;;3.25;;
24801;SDS011;12898;50.520;12.152;2022-12-26T07:20:10;4.93;;;2.67;;
24801;SDS011;12898;50.520;12.152;2022-12-26T07:22:36;6.38;;;2.88;;
24801;SDS011;12898;50.520;12.152;2022-12-26T07:25:02;4.10;;;2.88;;
24801;SDS011;12898;50.520;12.152;2022-12-26T07:27:28;6.38;;;2.80;;
24801;SDS011;12898;50.520;12.152;2022-12-26T07:29:54;3.85;;;2.72;;
24801;SDS011;12898;50.520;12.152;2022-12-26T07:32:20;8.25;;;3.03;;
24801;SDS011;12898;50.520;12.152;2022-12-26T07:34:45;6.75;;;3.15;;
24801;SDS011;12898;50.520;12.152;2022-12-26T07:37:11;6.18;;;2.67;;
24801;SDS011;12898;50.520;12.152;2022-12-26T07:39:37;6.68;;;2.90;;
24801;SDS011;12898;50.520;12.152;2022-12-26T07:42:03;5.57;;;2.65;;
24801;SDS011;12898;50.520;12.152;2022-12-26T07:44:29;5.80;;;2.67;;
24801;SDS011;12898;50.520;12.152;2022-12-26T07:46:57;4.22;;;2.67;;
24801;SDS011;12898;50.520;12.152;2022-12-26T07:49:24;6.05;;;2.80;;
24801;SDS011;12898;50.520;12.152;2022-12-26T07:51:50;6.65;;;2.92;;
24801;SDS011;12898;50.520;12.152;2022-12-26T07:54:16;5.93;;;2.72;;
24801;SDS011;12898;50.520;12.152;2022-12-26T07:56:42;7.72;;;3.50;;
24801;SDS011;12898;50.520;12.152;2022-12-26T07:59:12;7.15;;;2.50;;
24801;SDS011;12898;50.520;12.152;2022-12-26T08:01:41;9.27;;;3.22;;
24801;SDS011;12898;50.520;12.152;2022-12-26T08:04:07;8.55;;;2.85;;
24801;SDS011;12898;50.520;12.152;2022-12-26T08:06:37;7.30;;;2.97;;
24801;SDS011;12898;50.520;12.152;2022-12-26T08:09:03;5.68;;;2.78;;
24801;SDS011;12898;50.520;12.152;2022-12-26T08:11:30;5.05;;;2.60;;
24801;SDS011;12898;50.520;12.152;2022-12-26T08:13:59;6.18;;;3.05;;
24801;SDS011;12898;50.520;12.152;2022-12-26T08:16:24;4.68;;;2.63;;
24801;SDS011;12898;50.520;12.152;2022-12-26T08:18:50;4.80;;;2.80;;
24801;SDS011;12898;50.520;12.152;2022-12-26T08:21:16;6.25;;;2.55;;
24801;SDS011;12898;50.520;12.152;2022-12-26T08:23:41;5.47;;;3.00;;
24801;SDS011;12898;50.520;12.152;2022-12-26T08:26:08;6.30;;;3.20;;
24801;SDS011;12898;50.520;12.152;2022-12-26T08:28:37;5.55;;;2.50;;
24801;SDS011;12898;50.520;12.152;2022-12-26T08:31:04;4.03;;;2.75;;
24801;SDS011;12898;50.520;12.152;2022-12-26T08:33:34;5.93;;;3.03;;
24801;SDS011;12898;50.520;12.152;2022-12-26T08:36:04;6.70;;;2.90;;
24801;SDS011;12898;50.520;12.152;2022-12-26T08:38:32;8.35;;;3.22;;
24801;SDS011;12898;50.520;12.152;2022-12-26T08:40:58;5.25;;;2.85;;
24801;SDS011;12898;50.520;12.152;2022-12-26T08:43:24;4.47;;;2.53;;
24801;SDS011;12898;50.520;12.152;2022-12-26T08:45:59;7.25;;;2.85;;
24801;SDS011;12898;50.520;12.152;2022-12-26T08:48:29;5.28;;;2.53;;
24801;SDS011;12898;50.520;12.152;2022-12-26T08:50:56;4.70;;;2.50;;
24801;SDS011;12898;50.520;12.152;2022-12-26T08:53:27;6.07;;;2.88;;
24801;SDS011;12898;50.520;12.152;2022-12-26T08:55:56;6.43;;;3.00;;
24801;SDS011;12898;50.520;12.152;2022-12-26T08:58:23;7.25;;;2.63;;
24801;SDS011;12898;50.520;12.152;2022-12-26T09:00:49;4.75;;;2.85;;
24801;SDS011;12898;50.520;12.152;2022-12-26T09:03:15;3.78;;;2.40;;
24801;SDS011;12898;50.520;12.152;2022-12-26T09:05:41;5.85;;;2.80;;
24801;SDS011;12898;50.520;12.152;2022-12-26T09:08:07;6.22;;;2.30;;
24801;SDS011;12898;50.520;12.152;2022-12-26T09:10:33;5.45;;;3.00;;
24801;SDS011;12898;50.520;12.152;2022-12-26T09:12:59;6.72;;;3.08;;
24801;SDS011;12898;50.520;12.152;2022-12-26T09:15:28;4.47;;;2.72;;
24801;SDS011;12898;50.520;12.152;2022-12-26T09:17:53;6.65;;;3.00;;
24801;SDS011;12898;50.520;12.152;2022-12-26T09:20:19;5.70;;;2.65;;
24801;SDS011;12898;50.520;12.152;2022-12-26T09:22:45;5.93;;;2.72;;
24801;SDS011;12898;50.520;12.152;2022-12-26T09:25:17;6.20;;;2.45;;
24801;SDS011;12898;50.520;12.152;2022-12-26T09:27:49;5.35;;;2.50;;
24801;SDS011;12898;50.520;12.152;2022-12-26T09:30:17;6.40;;;3.35;;
24801;SDS011;12898;50.520;12.152;2022-12-26T09:32:51;10.60;;;3.17;;
24801;SDS011;12898;50.520;12.152;2022-12-26T09:35:17;8.27;;;3.28;;
24801;SDS011;12898;50.520;12.152;2022-12-26T09:37:43;4.00;;;2.47;;
24801;SDS011;12898;50.520;12.152;2022-12-26T09:40:20;7.03;;;3.00;;
24801;SDS011;12898;50.520;12.152;2022-12-26T09:43:08;4.45;;;2.80;;
24801;SDS011;12898;50.520;12.152;2022-12-26T09:46:03;4.65;;;2.70;;
24801;SDS011;12898;50.520;12.152;2022-12-26T09:51:42;6.78;;;2.83;;
24801;SDS011;12898;50.520;12.152;2022-12-26T09:54:16;6.00;;;3.00;;
24801;SDS011;12898;50.520;12.152;2022-12-26T09:56:52;6.28;;;2.80;;
24801;SDS011;12898;50.520;12.152;2022-12-26T09:59:21;5.15;;;2.58;;
24801;SDS011;12898;50.520;12.152;2022-12-26T10:01:52;7.28;;;2.90;;
24801;SDS011;12898;50.520;12.152;2022-12-26T10:04:20;5.53;;;2.40;;
24801;SDS011;12898;50.520;12.152;2022-12-26T10:09:48;4.90;;;2.75;;
24801;SDS011;12898;50.520;12.152;2022-12-26T10:18:51;9.88;;;2.95;;
24801;SDS011;12898;50.520;12.152;2022-12-26T10:21:46;7.07;;;3.05;;
24801;SDS011;12898;50.520;12.152;2022-12-26T10:24:36;5.15;;;2.80;;
24801;SDS011;12898;50.520;12.152;2022-12-26T10:27:06;5.88;;;2.72;;
24801;SDS011;12898;50.520;12.152;2022-12-26T10:29:40;6.30;;;2.78;;
24801;SDS011;12898;50.520;12.152;2022-12-26T10:34:54;4.93;;;3.00;;
24801;SDS011;12898;50.520;12.152;2022-12-26T10:37:32;5.50;;;2.80;;
24801;SDS011;12898;50.520;12.152;2022-12-26T10:42:43;6.28;;;2.47;;
24801;SDS011;12898;50.520;12.152;2022-12-26T10:45:19;6.70;;;2.63;;
24801;SDS011;12898;50.520;12.152;2022-12-26T10:47:54;5.60;;;2.83;;
24801;SDS011;12898;50.520;12.152;2022-12-26T10:50:24;6.10;;;2.75;;
24801;SDS011;12898;50.520;12.152;2022-12-26T10:52:53;5.53;;;2.40;;
24801;SDS011;12898;50.520;12.152;2022-12-26T10:55:22;12.43;;;3.10;;
24801;SDS011;12898;50.520;12.152;2022-12-26T10:57:53;9.07;;;3.33;;
24801;SDS011;12898;50.520;12.152;2022-12-26T11:00:27;12.13;;;2.60;;
24801;SDS011;12898;50.520;12.152;2022-12-26T11:03:16;6.82;;;2.80;;
24801;SDS011;12898;50.520;12.152;2022-12-26T11:05:43;6.03;;;2.70;;
24801;SDS011;12898;50.520;12.152;2022-12-26T11:13:31;3.85;;;2.15;;
24801;SDS011;12898;50.520;12.152;2022-12-26T11:16:24;4.30;;;2.25;;
24801;SDS011;12898;50.520;12.152;2022-12-26T11:18:58;4.53;;;2.47;;
24801;SDS011;12898;50.520;12.152;2022-12-26T11:21:25;5.72;;;2.65;;
24801;SDS011;12898;50.520;12.152;2022-12-26T11:26:33;7.65;;;2.53;;
24801;SDS011;12898;50.520;12.152;2022-12-26T11:29:10;7.22;;;2.15;;
24801;SDS011;12898;50.520;12.152;2022-12-26T11:32:00;5.32;;;2.42;;
24801;SDS011;12898;50.520;12.152;2022-12-26T11:34:29;6.32;;;2.20;;
24801;SDS011;12898;50.520;12.152;2022-12-26T11:37:00;4.30;;;2.30;;
24801;SDS011;12898;50.520;12.152;2022-12-26T11:39:29;3.33;;;1.90;;
24801;SDS011;12898;50.520;12.152;2022-12-26T11:41:59;5.65;;;2.30;;
24801;SDS011;12898;50.520;12.152;2022-12-26T11:44:26;4.78;;;2.50;;
24801;SDS011;12898;50.520;12.152;2022-12-26T11:49:38;3.47;;;2.15;;
24801;SDS011;12898;50.520;12.152;2022-12-26T11:52:37;4.50;;;1.88;;
24801;SDS011;12898;50.520;12.152;2022-12-26T12:03:01;4.10;;;1.95;;
24801;SDS011;12898;50.520;12.152;2022-12-26T12:05:45;3.70;;;1.90;;
24801;SDS011;12898;50.520;12.152;2022-12-26T12:08:42;4.72;;;2.03;;
24801;SDS011;12898;50.520;12.152;2022-12-26T12:11:30;7.75;;;1.80;;
24801;SDS011;12898;50.520;12.152;2022-12-26T12:14:11;4.13;;;1.80;;
24801;SDS011;12898;50.520;12.152;2022-12-26T12:26:13;4.55;;;2.20;;
24801;SDS011;12898;50.520;12.152;2022-12-26T12:29:31;3.33;;;1.80;;
24801;SDS011;12898;50.520;12.152;2022-12-26T12:41:24;2.17;;;1.40;;
24801;SDS011;12898;50.520;12.152;2022-12-26T12:44:21;4.05;;;1.70;;
24801;SDS011;12898;50.520;12.152;2022-12-26T12:47:38;10.95;;;2.83;;
24801;SDS011;12898;50.520;12.152;2022-12-26T12:53:08;5.03;;;1.75;;
24801;SDS011;12898;50.520;12.152;2022-12-26T12:56:18;4.15;;;1.70;;
24801;SDS011;12898;50.520;12.152;2022-12-26T12:59:27;5.97;;;2.90;;
24801;SDS011;12898;50.520;12.152;2022-12-26T13:02:04;7.68;;;3.08;;
24801;SDS011;12898;50.520;12.152;2022-12-26T13:04:43;4.80;;;2.58;;
24801;SDS011;12898;50.520;12.152;2022-12-26T13:07:17;10.27;;;3.85;;
24801;SDS011;12898;50.520;12.152;2022-12-26T13:09:56;5.88;;;2.80;;
24801;SDS011;12898;50.520;12.152;2022-12-26T13:12:30;3.72;;;2.20;;
24801;SDS011;12898;50.520;12.152;2022-12-26T13:15:04;5.57;;;2.90;;
24801;SDS011;12898;50.520;12.152;2022-12-26T13:17:51;7.00;;;2.30;;
24801;SDS011;12898;50.520;12.152;2022-12-26T13:20:46;5.28;;;2.50;;
24801;SDS011;12898;50.520;12.152;2022-12-26T13:23:24;3.90;;;2.08;;
24801;SDS011;12898;50.520;12.152;2022-12-26T13:26:18;4.38;;;2.10;;
24801;SDS011;12898;50.520;12.152;2022-12-26T13:28:51;4.43;;;2.30;;
24801;SDS011;12898;50.520;12.152;2022-12-26T13:31:26;6.00;;;2.20;;
24801;SDS011;12898;50.520;12.152;2022-12-26T13:34:00;5.50;;;2.28;;
24801;SDS011;12898;50.520;12.152;2022-12-26T13:36:35;5.50;;;2.70;;
24801;SDS011;12898;50.520;12.152;2022-12-26T13:39:15;14.77;;;7.45;;
24801;SDS011;12898;50.520;12.152;2022-12-26T13:50:46;9.77;;;5.53;;
24801;SDS011;12898;50.520;12.152;2022-12-26T13:56:12;8.73;;;4.90;;
24801;SDS011;12898;50.520;12.152;2022-12-26T13:59:03;4.03;;;2.80;;
24801;SDS011;12898;50.520;12.152;2022-12-26T14:04:46;4.70;;;2.47;;
24801;SDS011;12898;50.520;12.152;2022-12-26T14:07:42;5.40;;;2.72;;
24801;SDS011;12898;50.520;12.152;2022-12-26T14:10:20;6.65;;;3.20;;
24801;SDS011;12898;50.520;12.152;2022-12-26T14:13:08;5.78;;;2.72;;
24801;SDS011;12898;50.520;12.152;2022-12-26T14:18:42;5.93;;;2.50;;
24801;SDS011;12898;50.520;12.152;2022-12-26T14:27:47;4.78;;;2.80;;
24801;SDS011;12898;50.520;12.152;2022-12-26T14:33:27;4.07;;;2.25;;
24801;SDS011;12898;50.520;12.152;2022-12-26T14:36:06;4.10;;;2.58;;
24801;SDS011;12898;50.520;12.152;2022-12-26T14:39:01;7.57;;;3.53;;
24801;SDS011;12898;50.520;12.152;2022-12-26T14:44:59;2.83;;;1.90;;
24801;SDS011;12898;50.520;12.152;2022-12-26T14:47:48;3.63;;;2.45;;
24801;SDS011;12898;50.520;12.152;2022-12-26T14:55:49;3.38;;;2.00;;
24801;SDS011;12898;50.520;12.152;2022-12-26T15:03:37;5.82;;;2.00;;
24801;SDS011;12898;50.520;12.152;2022-12-26T15:15:13;2.25;;;1.50;;
24801;SDS011;12898;50.520;12.152;2022-12-26T15:18:31;4.45;;;2.20;;
24801;SDS011;12898;50.520;12.152;2022-12-26T15:21:39;3.70;;;1.98;;
24801;SDS011;12898;50.520;12.152;2022-12-26T15:30:22;3.72;;;1.80;;
24801;SDS011;12898;50.520;12.152;2022-12-26T15:36:05;2.83;;;1.85;;
24801;SDS011;12898;50.520;12.152;2022-12-26T15:38:45;3.58;;;1.80;;
24801;SDS011;12898;50.520;12.152;2022-12-26T15:41:39;3.33;;;1.75;;
24801;SDS011;12898;50.520;12.152;2022-12-26T15:47:09;2.25;;;1.80;;
24801;SDS011;12898;50.520;12.152;2022-12-26T15:50:00;2.58;;;1.48;;
24801;SDS011;12898;50.520;12.152;2022-12-26T15:55:50;3.42;;;1.70;;
24801;SDS011;12898;50.520;12.152;2022-12-26T16:01:09;5.20;;;2.10;;
24801;SDS011;12898;50.520;12.152;2022-12-26T16:03:40;5.57;;;2.08;;
24801;SDS011;12898;50.520;12.152;2022-12-26T16:09:07;3.38;;;1.60;;
24801;SDS011;12898;50.520;12.152;2022-12-26T16:14:27;3.85;;;1.50;;
24801;SDS011;12898;50.520;12.152;2022-12-26T16:17:08;5.13;;;1.48;;
24801;SDS011;12898;50.520;12.152;2022-12-26T16:19:46;2.88;;;1.60;;
24801;SDS011;12898;50.520;12.152;2022-12-26T16:22:35;3.33;;;1.90;;
24801;SDS011;12898;50.520;12.152;2022-12-26T16:25:08;4.75;;;1.60;;
24801;SDS011;12898;50.520;12.152;2022-12-26T16:27:37;3.90;;;1.70;;
24801;SDS011;12898;50.520;12.152;2022-12-26T16:30:05;2.97;;;1.90;;
24801;SDS011;12898;50.520;12.152;2022-12-26T16:32:39;3.92;;;1.73;;
24801;SDS011;12898;50.520;12.152;2022-12-26T16:35:14;5.07;;;2.00;;
24801;SDS011;12898;50.520;12.152;2022-12-26T16:37:50;3.85;;;1.95;;
24801;SDS011;12898;50.520;12.152;2022-12-26T16:42:58;5.20;;;2.60;;
24801;SDS011;12898;50.520;12.152;2022-12-26T16:45:33;5.00;;;2.45;;
24801;SDS011;12898;50.520;12.152;2022-12-26T16:48:03;5.22;;;2.15;;
24801;SDS011;12898;50.520;12.152;2022-12-26T16:50:31;6.18;;;2.47;;
24801;SDS011;12898;50.520;12.152;2022-12-26T16:55:44;4.40;;;1.33;;
24801;SDS011;12898;50.520;12.152;2022-12-26T16:58:23;3.33;;;0.93;;
24801;SDS011;12898;50.520;12.152;2022-12-26T17:01:12;2.45;;;1.10;;
24801;SDS011;12898;50.520;12.152;2022-12-26T17:06:28;2.88;;;1.08;;
24801;SDS011;12898;50.520;12.152;2022-12-26T17:08:58;1.58;;;0.90;;
24801;SDS011;12898;50.520;12.152;2022-12-26T17:11:39;1.30;;;0.90;;
24801;SDS011;12898;50.520;12.152;2022-12-26T17:14:27;2.97;;;1.13;;
24801;SDS011;12898;50.520;12.152;2022-12-26T17:16:56;3.05;;;1.40;;
24801;SDS011;12898;50.520;12.152;2022-12-26T17:19:51;2.13;;;0.95;;
24801;SDS011;12898;50.520;12.152;2022-12-26T17:25:14;4.65;;;1.33;;
24801;SDS011;12898;50.520;12.152;2022-12-26T17:27:44;1.92;;;0.73;;
24801;SDS011;12898;50.520;12.152;2022-12-26T17:30:28;3.77;;;0.70;;
24801;SDS011;12898;50.520;12.152;2022-12-26T17:33:09;0.90;;;0.60;;
24801;SDS011;12898;50.520;12.152;2022-12-26T17:35:39;1.38;;;0.80;;
24801;SDS011;12898;50.520;12.152;2022-12-26T17:38:08;2.10;;;0.90;;
24801;SDS011;12898;50.520;12.152;2022-12-26T17:40:39;6.43;;;1.00;;
24801;SDS011;12898;50.520;12.152;2022-12-26T17:45:38;2.67;;;1.30;;
24801;SDS011;12898;50.520;12.152;2022-12-26T17:48:06;1.67;;;1.05;;
24801;SDS011;12898;50.520;12.152;2022-12-26T17:50:33;1.55;;;1.08;;
24801;SDS011;12898;50.520;12.152;2022-12-26T17:55:34;4.38;;;1.80;;
24801;SDS011;12898;50.520;12.152;2022-12-26T17:57:59;2.97;;;1.40;;
24801;SDS011;12898;50.520;12.152;2022-12-26T18:00:25;3.40;;;1.80;;
24801;SDS011;12898;50.520;12.152;2022-12-26T18:02:52;2.53;;;1.52;;
24801;SDS011;12898;50.520;12.152;2022-12-26T18:05:18;5.47;;;2.40;;
24801;SDS011;12898;50.520;12.152;2022-12-26T18:07:45;5.70;;;2.40;;
24801;SDS011;12898;50.520;12.152;2022-12-26T18:10:21;3.90;;;1.90;;
24801;SDS011;12898;50.520;12.152;2022-12-26T18:12:50;4.82;;;1.45;;
24801;SDS011;12898;50.520;12.152;2022-12-26T18:15:16;3.77;;;1.73;;
24801;SDS011;12898;50.520;12.152;2022-12-26T18:17:43;6.13;;;2.10;;
24801;SDS011;12898;50.520;12.152;2022-12-26T18:20:29;6.70;;;1.60;;
24801;SDS011;12898;50.520;12.152;2022-12-26T18:22:55;1.75;;;1.25;;